Aeroporto :
LOGIN :

Iscrizione | Disclaimer

   EN    FR    IT 

 










Sommario :    VFR   VFR Marginale   IFR   IFR Intensivo   IFR Molto Intensivo
Visibilità : 
Base nubi : 
>= 8 km
>= 3000ft
5 / 8 km
1000 / 3000 ft
1500m / 5 km
500 / 1000 ft
800 / 1500m
200 / 500 ft
< 800m
< 200 ft
Simboli :   Temporali  Nebbia  Neve Forte  Precipitazioni Forti  Vento > 20 kt
SIGMETs :   Varie  Temporali  Ghiacco  Turbolenza  Onda orograficha  Ceneri Vulcaniche






- Altitudine del aeroporto : 7 ft
- Codice IATA : VCE


LIPZ - Marco Polo Int. Venezia

ULTIMO METAR :
  • 230850Z 07005KT 040V100 9999 FEW070 28/20 Q1015 NOSIG

METARs OBSOLETI :
  • 230820Z 02005KT 340V060 9999 SCT070 28/20 Q1015 NOSIG
  • 230750Z 36005KT 330V030 9999 SCT070 27/20 Q1015 NOSIG
  • 230720Z 03006KT 360V060 9999 SCT070 27/20 Q1015 NOSIG
  • 230650Z 03006KT 9999 SCT070 26/20 Q1015 NOSIG
  • 230620Z 02007KT 9999 SCT070 26/20 Q1015 NOSIG
  • 230550Z 01007KT 9999 SCT070 25/20 Q1015 NOSIG
  • 230520Z 01007KT CAVOK 25/20 Q1015 NOSIG
  • 230450Z 35005KT 320V020 CAVOK 23/20 Q1015 NOSIG
  • 230420Z 34006KT 320V040 CAVOK 23/20 Q1015 NOSIG

TAF TAF LIPZ
Valido dal 23 a 06 ore il 24 a 12 ore UTC


230500Z 2306/2412 03007KT 9999 SCT035
TEMPO 2314/2320 4000 TSRA



MetMap, La meteo Aeronautica in un colpo d'occhio ! - Copyright ORBIFLY Dicembre 2007 - Disclaimer

ORBIFLY MET'MAP TEAM :

Programmazione e sviluppo : Alexandra Zaïnal
Concezione : Baudouin d'Aumeries
Supporto tecnico e logistico : Manuel Goepfert
Aiuto : Marc-Olivier Méhu
Aiuto per la traduzione : Arnaldo La Scala




FONTI E CREDITI :

   NOAA